createdAt,value
2022-11-01T00:00:14.633Z,20.95
2022-11-01T00:03:04.171Z,25.67
2022-11-01T00:05:33.802Z,24.17
2022-11-01T00:08:04.471Z,22.17
2022-11-01T00:10:33.967Z,19.92
2022-11-01T00:13:05.407Z,19.80
2022-11-01T00:18:04.700Z,22.15
2022-11-01T00:20:34.239Z,20.30
2022-11-01T00:23:04.509Z,20.17
2022-11-01T00:25:33.971Z,17.90
2022-11-01T00:28:05.659Z,16.45
2022-11-01T00:30:37.932Z,23.95
2022-11-01T00:33:08.052Z,20.60
2022-11-01T00:35:38.399Z,14.38
2022-11-01T00:40:37.780Z,17.83
2022-11-01T00:43:09.528Z,23.92
2022-11-01T00:45:39.102Z,16.60
2022-11-01T00:48:09.217Z,13.73
2022-11-01T00:50:38.482Z,15.07
2022-11-01T00:53:08.932Z,16.25
2022-11-01T00:55:38.375Z,14.07
2022-11-01T00:58:09.919Z,18.73
2022-11-01T01:00:39.511Z,18.27
2022-11-01T01:03:09.886Z,16.05
2022-11-01T01:05:39.359Z,17.38
2022-11-01T01:08:09.523Z,15.73
2022-11-01T01:10:39.143Z,17.13
2022-11-01T01:13:10.625Z,14.82
2022-11-01T01:18:10.867Z,17.35
2022-11-01T01:20:40.747Z,16.48
2022-11-01T01:23:11.083Z,14.35
2022-11-01T01:25:41.822Z,17.88
2022-11-01T01:28:12.977Z,18.02
2022-11-01T01:35:46.939Z,13.98
2022-11-01T01:38:16.822Z,16.58
2022-11-01T01:40:46.156Z,13.30
2022-11-01T01:43:17.495Z,14.03
2022-11-01T01:45:47.293Z,14.73
2022-11-01T01:48:21.237Z,12.48
2022-11-01T01:50:57.487Z,10.48
2022-11-01T01:53:30.465Z,11.63
2022-11-01T01:56:02.534Z,11.57
2022-11-01T01:58:37.154Z,11.43
2022-11-01T02:01:07.056Z,10.77
2022-11-01T02:03:38.844Z,10.88
2022-11-01T02:06:11.752Z,13.35
2022-11-01T02:08:43.927Z,11.80
2022-11-01T02:11:14.270Z,14.25
2022-11-01T02:13:45.729Z,11.57
2022-11-01T02:19:02.022Z,7.88
2022-11-01T02:21:53.078Z,9.52
2022-11-01T02:25:11.236Z,7.93
2022-11-01T02:28:02.504Z,11.55
2022-11-01T02:30:43.687Z,8.07
2022-11-01T02:33:27.435Z,9.02
2022-11-01T02:36:03.264Z,7.03
2022-11-01T02:38:41.454Z,10.20
2022-11-01T02:41:14.857Z,12.35
2022-11-01T02:43:50.660Z,10.68
2022-11-01T02:46:40.470Z,9.18
2022-11-01T02:49:14.573Z,10.50
2022-11-01T02:51:46.763Z,13.43
2022-11-01T02:54:22.768Z,12.68
2022-11-01T02:56:53.154Z,14.30
2022-11-01T02:59:26.806Z,9.93
2022-11-01T03:02:02.513Z,9.63
2022-11-01T03:04:34.025Z,10.35
2022-11-01T03:07:08.372Z,11.00
2022-11-01T03:09:39.261Z,13.70
2022-11-01T03:12:14.924Z,13.60
2022-11-01T03:14:53.293Z,8.60
2022-11-01T03:17:29.242Z,10.68
2022-11-01T03:20:05.749Z,7.18
2022-11-01T03:22:44.112Z,9.25
2022-11-01T03:25:31.433Z,9.88
2022-11-01T03:28:04.659Z,14.20
2022-11-01T03:30:35.889Z,10.88
2022-11-01T03:33:06.493Z,10.70
2022-11-01T03:35:40.380Z,9.10
2022-11-01T03:38:15.760Z,11.43
2022-11-01T03:40:51.914Z,9.15
2022-11-01T03:43:24.639Z,10.75
2022-11-01T03:45:54.485Z,13.50
2022-11-01T03:48:25.026Z,8.05
2022-11-01T03:50:57.525Z,10.93
2022-11-01T03:53:27.775Z,14.50
2022-11-01T03:55:57.161Z,8.52
2022-11-01T03:58:41.982Z,12.95
2022-11-01T04:01:12.578Z,8.13
2022-11-01T04:03:43.182Z,9.82
2022-11-01T04:06:14.193Z,14.10
2022-11-01T04:08:44.449Z,10.20
2022-11-01T04:11:13.911Z,10.43
2022-11-01T04:13:43.924Z,8.00
2022-11-01T04:16:42.311Z,7.85
2022-11-01T04:19:30.061Z,10.85
2022-11-01T04:22:00.835Z,10.18
2022-11-01T04:24:30.786Z,11.10
2022-11-01T04:27:00.204Z,6.95
2022-11-01T04:29:30.191Z,12.27
2022-11-01T04:31:59.816Z,9.40
2022-11-01T04:34:44.808Z,10.63
2022-11-01T04:37:15.750Z,16.95
2022-11-01T04:39:45.923Z,13.98
2022-11-01T04:42:15.457Z,12.25
2022-11-01T04:44:47.318Z,12.20
2022-11-01T04:47:16.829Z,11.77
2022-11-01T04:49:46.973Z,14.43
2022-11-01T04:52:17.807Z,12.60
2022-11-01T04:54:47.891Z,13.75
2022-11-01T04:57:24.589Z,17.05
2022-11-01T04:59:55.017Z,14.38
2022-11-01T05:02:25.701Z,10.85
2022-11-01T05:04:55.792Z,12.50
2022-11-01T05:07:26.591Z,14.70
2022-11-01T05:09:56.258Z,12.95
2022-11-01T05:12:25.587Z,12.48
2022-11-01T05:14:56.883Z,14.30
2022-11-01T05:17:26.791Z,14.23
2022-11-01T05:19:57.099Z,12.25
2022-11-01T05:22:28.017Z,15.70
2022-11-01T05:24:58.122Z,12.63
2022-11-01T05:27:27.375Z,17.45
2022-11-01T05:29:57.406Z,14.60
2022-11-01T05:32:26.716Z,15.98
2022-11-01T05:34:56.260Z,12.80
2022-11-01T05:37:28.225Z,17.70
2022-11-01T05:39:58.312Z,16.08
2022-11-01T05:42:27.599Z,15.93
2022-11-01T05:44:57.521Z,21.48
2022-11-01T05:47:26.878Z,17.40
2022-11-01T05:49:56.808Z,18.27
2022-11-01T05:52:27.666Z,26.52
2022-11-01T05:54:57.572Z,18.38
2022-11-01T05:57:32.331Z,22.63
2022-11-01T06:00:03.504Z,24.60
2022-11-01T06:02:33.936Z,20.33
2022-11-01T06:05:04.238Z,24.80
2022-11-01T06:07:37.081Z,25.98
2022-11-01T06:10:08.133Z,27.83
2022-11-01T06:12:37.423Z,31.67
2022-11-01T06:15:07.843Z,31.10
2022-11-01T06:17:37.279Z,30.17
2022-11-01T06:20:07.934Z,36.80
2022-11-01T06:22:38.848Z,33.37
2022-11-01T06:25:09.732Z,38.47
2022-11-01T06:27:39.215Z,45.17
2022-11-01T06:30:10.589Z,39.85
2022-11-01T06:32:40.066Z,44.70
2022-11-01T06:35:11.018Z,53.90
2022-11-01T06:37:41.855Z,52.75
2022-11-01T06:40:13.504Z,63.88
2022-11-01T06:42:46.323Z,65.45
2022-11-01T06:45:17.065Z,61.55
2022-11-01T06:47:48.970Z,61.25
2022-11-01T06:50:19.179Z,59.30
2022-11-01T06:52:49.870Z,53.35
2022-11-01T06:55:19.492Z,65.10
2022-11-01T06:57:56.371Z,63.28
2022-11-01T07:00:27.177Z,60.05
2022-11-01T07:03:04.808Z,64.75
2022-11-01T07:05:37.259Z,62.30
2022-11-01T07:08:10.597Z,62.08
2022-11-01T07:10:41.811Z,57.50
2022-11-01T07:13:13.050Z,67.30
2022-11-01T07:15:42.859Z,52.72
2022-11-01T07:18:12.671Z,60.35
2022-11-01T07:23:20.713Z,59.03
2022-11-01T07:25:54.092Z,55.80
2022-11-01T07:28:23.651Z,51.53
2022-11-01T07:30:54.593Z,56.53
2022-11-01T07:33:24.754Z,53.78
2022-11-01T07:35:55.369Z,56.92
2022-11-01T07:38:26.377Z,54.87
2022-11-01T07:40:56.308Z,52.28
2022-11-01T07:43:25.622Z,48.28
2022-11-01T07:45:55.539Z,56.67
2022-11-01T07:48:25.011Z,44.95
2022-11-01T07:50:58.441Z,52.88
2022-11-01T07:53:29.417Z,54.70
2022-11-01T07:56:01.200Z,55.75
2022-11-01T07:58:31.121Z,52.90
2022-11-01T08:01:02.704Z,49.25
2022-11-01T08:03:32.292Z,47.58
2022-11-01T08:06:02.355Z,49.15
2022-11-01T08:08:33.113Z,58.05
2022-11-01T08:11:03.072Z,51.38
2022-11-01T08:13:32.659Z,57.53
2022-11-01T08:16:04.168Z,54.17
2022-11-01T08:18:33.550Z,51.33
2022-11-01T08:21:03.399Z,50.00
2022-11-01T08:23:34.112Z,60.17
2022-11-01T08:26:05.285Z,60.85
2022-11-01T08:28:34.560Z,55.80
2022-11-01T08:31:08.683Z,52.60
2022-11-01T08:33:38.207Z,57.45
2022-11-01T08:36:08.301Z,51.58
2022-11-01T08:38:39.248Z,61.22
2022-11-01T08:41:09.253Z,49.53
2022-11-01T08:43:40.587Z,58.92
2022-11-01T08:46:11.442Z,59.00
2022-11-01T08:48:40.719Z,66.75
2022-11-01T08:51:11.068Z,52.85
2022-11-01T08:53:41.800Z,67.88
2022-11-01T08:56:12.101Z,62.08
2022-11-01T08:58:41.318Z,69.50
2022-11-01T09:01:13.669Z,62.95
2022-11-01T09:03:42.981Z,55.72
2022-11-01T09:06:12.936Z,61.28
2022-11-01T09:08:43.930Z,67.75
2022-11-01T09:11:13.558Z,81.80
2022-11-01T09:13:42.932Z,83.80
2022-11-01T09:16:13.195Z,81.57
2022-11-01T09:18:42.607Z,76.88
2022-11-01T09:21:12.508Z,80.53
2022-11-01T09:23:43.297Z,84.70
2022-11-01T09:26:13.422Z,82.55
2022-11-01T09:28:42.806Z,75.70
2022-11-01T09:31:20.807Z,78.53
2022-11-01T09:33:50.811Z,75.60
2022-11-01T09:36:21.541Z,77.00
2022-11-01T09:38:52.544Z,72.20
2022-11-01T09:41:35.265Z,65.00
2022-11-01T09:44:06.771Z,70.40
2022-11-01T09:46:45.399Z,66.40
2022-11-01T09:49:21.864Z,77.00
2022-11-01T09:51:51.759Z,71.97
2022-11-01T09:54:25.363Z,73.57
2022-11-01T09:57:05.464Z,71.22
2022-11-01T09:59:43.653Z,73.30
2022-11-01T10:02:42.651Z,77.78
2022-11-01T10:05:28.827Z,70.97
2022-11-01T10:08:08.016Z,70.88
2022-11-01T10:10:45.808Z,68.22
2022-11-01T10:13:27.876Z,61.90
2022-11-01T10:16:04.779Z,69.20
2022-11-01T10:18:39.732Z,63.95
2022-11-01T10:21:14.341Z,74.10
2022-11-01T10:23:47.223Z,71.25
2022-11-01T10:26:22.671Z,68.10
2022-11-01T10:28:59.355Z,64.32
2022-11-01T10:31:30.432Z,61.33
2022-11-01T10:34:04.548Z,65.93
2022-11-01T10:42:15.020Z,59.13
2022-11-01T10:44:48.728Z,53.65
2022-11-01T10:47:20.900Z,50.75
2022-11-01T10:50:09.285Z,45.65
2022-11-01T10:52:50.619Z,42.45
2022-11-01T10:55:25.719Z,45.67
2022-11-01T10:57:59.620Z,43.03
2022-11-01T11:00:30.217Z,44.00
2022-11-01T11:03:02.860Z,40.22
2022-11-01T11:05:33.891Z,38.70
2022-11-01T11:08:07.707Z,36.50
2022-11-01T11:10:37.647Z,36.50
2022-11-01T11:13:09.464Z,39.42
2022-11-01T11:15:45.931Z,36.38
2022-11-01T11:18:26.041Z,38.28
2022-11-01T11:21:00.490Z,34.35
2022-11-01T11:23:33.467Z,73.78
2022-11-01T11:26:05.541Z,33.38
2022-11-01T11:28:44.522Z,35.58
2022-11-01T11:31:18.998Z,34.30
2022-11-01T11:33:55.304Z,35.47
2022-11-01T11:36:31.537Z,32.70
2022-11-01T11:39:01.886Z,28.30
2022-11-01T11:41:36.461Z,30.83
2022-11-01T11:44:40.399Z,31.88
2022-11-01T11:47:21.622Z,35.83
2022-11-01T11:49:53.985Z,36.25
2022-11-01T11:52:28.678Z,41.42
2022-11-01T11:54:58.456Z,38.85
2022-11-01T11:57:30.475Z,47.25
2022-11-01T12:00:05.456Z,41.08
2022-11-01T12:02:37.723Z,40.38
2022-11-01T12:05:09.554Z,43.05
2022-11-01T12:07:49.121Z,42.85
2022-11-01T12:10:32.623Z,45.10
2022-11-01T12:13:03.511Z,45.70
2022-11-01T12:15:41.194Z,43.42
2022-11-01T12:18:16.204Z,47.17
2022-11-01T12:20:50.847Z,50.95
2022-11-01T12:23:29.469Z,43.47
2022-11-01T12:26:01.215Z,46.47
2022-11-01T12:28:35.639Z,45.95
2022-11-01T12:31:13.127Z,48.08
2022-11-01T12:33:50.226Z,47.97
2022-11-01T12:36:22.056Z,44.88
2022-11-01T12:38:57.171Z,48.67
2022-11-01T12:41:32.350Z,46.00
2022-11-01T12:44:12.193Z,50.67
2022-11-01T12:46:48.999Z,44.40
2022-11-01T12:49:28.859Z,42.50
2022-11-01T12:52:03.527Z,43.53
2022-11-01T12:54:40.630Z,38.67
2022-11-01T12:57:18.969Z,39.15
2022-11-01T12:59:49.103Z,36.75
2022-11-01T13:02:33.720Z,39.38
2022-11-01T13:05:07.669Z,34.65
2022-11-01T13:07:57.506Z,90.82
2022-11-01T13:10:35.615Z,43.67
2022-11-01T13:13:15.818Z,25.95
2022-11-01T13:15:55.333Z,25.98
2022-11-01T13:18:36.816Z,24.70
2022-11-01T13:21:14.657Z,24.33
2022-11-01T13:23:49.805Z,22.80
2022-11-01T13:26:25.788Z,22.15
2022-11-01T13:29:04.246Z,25.02
2022-11-01T13:31:45.260Z,27.83
2022-11-01T13:34:28.076Z,24.58
2022-11-01T13:37:05.854Z,28.48
2022-11-01T13:39:42.034Z,26.98
2022-11-01T13:42:16.407Z,26.65
2022-11-01T13:44:49.274Z,25.30
2022-11-01T13:47:38.337Z,30.98
2022-11-01T13:50:39.810Z,27.15
2022-11-01T13:53:19.836Z,26.42
2022-11-01T13:55:57.040Z,27.02
2022-11-01T13:58:27.595Z,30.73
2022-11-01T14:00:57.824Z,29.30
2022-11-01T14:03:30.710Z,26.77
2022-11-01T14:09:36.057Z,29.83
2022-11-01T14:12:34.760Z,28.45
2022-11-01T14:15:25.609Z,28.15
2022-11-01T14:18:13.009Z,29.13
2022-11-01T14:20:51.956Z,29.25
2022-11-01T14:24:01.974Z,31.58
2022-11-01T14:26:38.426Z,30.38
2022-11-01T14:29:14.071Z,29.15
2022-11-01T14:31:48.639Z,34.35
2022-11-01T14:34:45.701Z,35.05
2022-11-01T14:37:24.678Z,32.47
2022-11-01T14:40:04.424Z,34.30
2022-11-01T14:42:40.805Z,39.80
2022-11-01T14:45:30.080Z,37.10
2022-11-01T14:48:03.185Z,35.83
2022-11-01T14:50:40.561Z,38.05
2022-11-01T14:53:18.495Z,36.72
2022-11-01T14:55:47.936Z,40.47
2022-11-01T14:58:21.355Z,40.70
2022-11-01T15:00:55.069Z,57.53
2022-11-01T15:03:25.187Z,200.85
2022-11-01T15:05:54.957Z,37.38
2022-11-01T15:08:28.210Z,36.90
2022-11-01T15:11:00.218Z,35.58
2022-11-01T15:13:32.800Z,36.45
2022-11-01T15:16:14.942Z,32.63
2022-11-01T15:18:49.905Z,35.63
2022-11-01T15:21:25.568Z,33.45
2022-11-01T15:23:59.382Z,32.05
2022-11-01T15:26:32.201Z,34.30
2022-11-01T15:29:04.717Z,37.88
2022-11-01T15:31:36.553Z,32.35
2022-11-01T15:34:21.670Z,30.15
2022-11-01T15:36:50.967Z,36.42
2022-11-01T15:39:22.922Z,32.57
2022-11-01T15:41:54.301Z,33.88
2022-11-01T15:44:27.764Z,34.58
2022-11-01T15:47:00.960Z,32.88
2022-11-01T15:49:34.388Z,42.55
2022-11-01T15:52:26.191Z,35.20
2022-11-01T15:55:02.734Z,40.15
2022-11-01T15:57:37.088Z,35.92
2022-11-01T16:00:09.926Z,32.88
2022-11-01T16:02:51.218Z,36.95
2022-11-01T16:05:24.478Z,40.53
2022-11-01T16:07:54.642Z,40.05
2022-11-01T16:10:27.587Z,35.72
2022-11-01T16:12:57.879Z,34.88
2022-11-01T16:20:34.441Z,33.58
2022-11-01T16:23:04.752Z,31.23
2022-11-01T16:25:35.964Z,34.92
2022-11-01T16:28:08.717Z,29.17
2022-11-01T16:30:45.798Z,32.35
2022-11-01T16:33:26.509Z,33.35
2022-11-01T16:38:43.635Z,31.10
2022-11-01T16:41:20.448Z,31.98
2022-11-01T16:43:51.283Z,33.30
2022-11-01T16:46:21.185Z,34.45
2022-11-01T16:48:54.745Z,29.45
2022-11-01T16:51:28.717Z,34.80
2022-11-01T16:53:59.530Z,43.25
2022-11-01T16:56:37.002Z,42.13
2022-11-01T16:59:10.415Z,32.00
2022-11-01T17:01:40.820Z,33.80
2022-11-01T17:04:14.629Z,31.55
2022-11-01T17:06:45.812Z,34.38
2022-11-01T17:09:17.139Z,35.25
2022-11-01T17:11:51.293Z,32.58
2022-11-01T17:14:22.251Z,33.63
2022-11-01T17:16:53.963Z,37.42
2022-11-01T17:19:29.697Z,34.20
2022-11-01T17:22:01.190Z,35.90
2022-11-01T17:27:05.458Z,34.58
2022-11-01T17:29:35.282Z,34.92
2022-11-01T17:32:09.786Z,40.63
2022-11-01T17:34:40.689Z,39.47
2022-11-01T17:37:17.263Z,39.63
2022-11-01T17:39:46.596Z,39.80
2022-11-01T17:42:16.512Z,41.75
2022-11-01T17:45:06.636Z,42.03
2022-11-01T17:47:36.382Z,40.65
2022-11-01T17:50:07.702Z,41.53
2022-11-01T17:52:37.612Z,46.35
2022-11-01T17:55:08.546Z,44.35
2022-11-01T17:57:39.062Z,46.90
2022-11-01T18:00:12.495Z,47.47
2022-11-01T18:02:43.025Z,43.20
2022-11-01T18:05:14.724Z,47.10
2022-11-01T18:07:47.898Z,45.80
2022-11-01T18:10:22.048Z,51.03
2022-11-01T18:13:08.191Z,46.00
2022-11-01T18:15:47.167Z,47.65
2022-11-01T18:18:27.319Z,41.58
2022-11-01T18:21:10.310Z,43.60
2022-11-01T18:23:42.180Z,46.22
2022-11-01T18:26:17.966Z,40.90
2022-11-01T18:28:49.434Z,42.92
2022-11-01T18:31:23.810Z,43.92
2022-11-01T18:34:00.299Z,47.95
2022-11-01T18:36:35.691Z,40.08
2022-11-01T18:39:25.135Z,45.08
2022-11-01T18:41:54.869Z,45.00
2022-11-01T18:44:26.245Z,47.33
2022-11-01T18:49:28.874Z,47.50
2022-11-01T18:52:00.203Z,47.25
2022-11-01T18:54:33.256Z,51.05
2022-11-01T18:57:14.976Z,50.25
2022-11-01T18:59:46.031Z,49.90
2022-11-01T19:02:17.511Z,49.10
2022-11-01T19:04:48.232Z,49.95
2022-11-01T19:07:22.907Z,52.58
2022-11-01T19:09:56.605Z,46.85
2022-11-01T19:12:29.913Z,50.38
2022-11-01T19:15:05.190Z,50.75
2022-11-01T19:17:39.350Z,57.08
2022-11-01T19:20:22.618Z,49.40
2022-11-01T19:22:57.690Z,59.13
2022-11-01T19:25:30.052Z,63.83
2022-11-01T19:28:03.301Z,57.40
2022-11-01T19:30:35.039Z,52.75
2022-11-01T19:33:18.640Z,57.85
2022-11-01T19:35:52.858Z,52.67
2022-11-01T19:38:26.572Z,53.70
2022-11-01T19:40:56.718Z,55.00
2022-11-01T19:43:28.121Z,54.50
2022-11-01T19:46:00.273Z,60.50
2022-11-01T19:48:31.906Z,58.13
2022-11-01T19:51:01.851Z,58.55
2022-11-01T19:53:34.412Z,62.38
2022-11-01T19:56:08.869Z,68.97
2022-11-01T19:58:45.693Z,59.75
2022-11-01T20:01:42.418Z,61.33
2022-11-01T20:04:27.210Z,60.33
2022-11-01T20:07:01.454Z,54.75
2022-11-01T20:09:36.480Z,61.83
2022-11-01T20:12:07.172Z,53.30
2022-11-01T20:14:37.899Z,68.28
2022-11-01T20:17:10.227Z,57.67
2022-11-01T20:19:39.559Z,57.75
2022-11-01T20:22:09.114Z,56.67
2022-11-01T20:24:39.844Z,63.58
2022-11-01T20:27:09.558Z,62.97
2022-11-01T20:29:39.509Z,59.13
2022-11-01T20:32:11.988Z,56.95
2022-11-01T20:34:41.471Z,53.03
2022-11-01T20:40:02.177Z,53.70
2022-11-01T20:42:31.801Z,57.10
2022-11-01T20:45:01.104Z,58.22
2022-11-01T20:47:30.878Z,50.72
2022-11-01T20:50:00.278Z,51.72
2022-11-01T20:52:45.438Z,60.53
2022-11-01T20:55:16.823Z,55.55
2022-11-01T20:57:46.566Z,54.40
2022-11-01T21:00:18.670Z,53.05
2022-11-01T21:02:49.301Z,52.78
2022-11-01T21:05:23.423Z,53.97
2022-11-01T21:07:58.564Z,50.22
2022-11-01T21:10:32.932Z,43.90
2022-11-01T21:13:06.968Z,51.40
2022-11-01T21:15:38.575Z,49.60
2022-11-01T21:18:35.927Z,52.83
2022-11-01T21:21:30.705Z,43.08
2022-11-01T21:24:01.716Z,46.05
2022-11-01T21:26:37.164Z,51.95
2022-11-01T21:29:17.115Z,44.85
2022-11-01T21:31:46.629Z,47.83
2022-11-01T21:34:26.252Z,45.95
2022-11-01T21:36:57.503Z,50.40
2022-11-01T21:39:29.155Z,44.47
2022-11-01T21:42:02.340Z,44.72
2022-11-01T21:44:37.059Z,44.38
2022-11-01T21:47:16.675Z,47.50
2022-11-01T21:49:46.808Z,58.70
2022-11-01T21:52:16.512Z,44.67
2022-11-01T21:54:46.493Z,54.70
2022-11-01T21:57:18.010Z,48.70
2022-11-01T21:59:47.983Z,51.97
2022-11-01T22:02:17.687Z,49.55
2022-11-01T22:04:47.660Z,52.75
2022-11-01T22:07:17.108Z,52.30
2022-11-01T22:09:47.186Z,52.97
2022-11-01T22:12:18.127Z,48.35
2022-11-01T22:14:47.974Z,59.30
2022-11-01T22:17:17.442Z,50.42
2022-11-01T22:19:47.299Z,45.60
2022-11-01T22:22:17.004Z,47.47
2022-11-01T22:24:47.326Z,40.38
2022-11-01T22:27:18.249Z,41.95
2022-11-01T22:29:48.462Z,37.70
2022-11-01T22:32:17.955Z,34.30
2022-11-01T22:34:48.220Z,36.08
2022-11-01T22:37:17.696Z,36.53
2022-11-01T22:39:52.888Z,27.63
2022-11-01T22:42:24.712Z,31.52
2022-11-01T22:44:55.147Z,28.88
2022-11-01T22:47:28.022Z,22.45
2022-11-01T22:50:01.176Z,26.30
2022-11-01T22:52:33.633Z,17.40
2022-11-01T22:55:07.182Z,18.13
2022-11-01T22:57:45.662Z,19.65
2022-11-01T23:00:39.251Z,20.20
2022-11-01T23:03:22.829Z,16.65
2022-11-01T23:05:54.676Z,22.48
2022-11-01T23:08:28.032Z,21.88
2022-11-01T23:10:59.035Z,24.05
2022-11-01T23:13:49.509Z,14.32
2022-11-01T23:16:25.098Z,16.73
2022-11-01T23:18:57.793Z,16.67
2022-11-01T23:21:29.241Z,16.10
2022-11-01T23:26:31.013Z,16.93
2022-11-01T23:29:02.358Z,19.17
2022-11-01T23:31:32.569Z,18.58
2022-11-01T23:34:02.085Z,25.77
2022-11-01T23:36:35.593Z,15.60
2022-11-01T23:39:09.224Z,19.42
2022-11-01T23:41:43.459Z,17.90
2022-11-01T23:44:26.042Z,21.15
2022-11-01T23:46:59.334Z,23.10
2022-11-01T23:49:32.018Z,18.20
2022-11-01T23:52:02.238Z,19.80
2022-11-01T23:54:37.363Z,18.90
2022-11-01T23:57:07.490Z,18.20
2022-11-01T23:59:39.499Z,24.55
